Time,TemperatureF,DewpointF,PressureIn,WindDirection,WindDirectionDegrees,WindSpeedMPH,WindSpeedGustMPH,Humidity,HourlyPrecipIn,Conditions,Clouds,dailyrainin,SoftwareType,DateUTC
2013-03-13 00:03:00,31.0,24.0,29.92,WSW,253,7.0,17.0,75,0.00,,,0.50,,2013-03-13 04:03:00,
2013-03-13 00:13:00,31.0,24.0,29.92,WSW,253,7.0,17.0,75,0.00,,,0.50,,2013-03-13 04:13:00,
2013-03-13 00:22:00,31.0,25.0,29.92,WSW,256,7.0,17.0,78,0.00,,,0.50,,2013-03-13 04:22:00,
2013-03-13 00:32:00,31.0,24.0,29.93,WSW,238,10.0,20.0,76,0.00,,,0.50,,2013-03-13 04:32:00,
2013-03-13 00:43:00,31.0,24.0,29.93,WSW,238,10.0,20.0,76,0.00,,,0.50,,2013-03-13 04:43:00,
2013-03-13 00:52:00,31.0,23.0,29.92,WSW,249,8.0,16.0,73,0.00,,,0.50,,2013-03-13 04:52:00,
2013-03-13 01:02:00,31.0,24.0,29.93,WSW,249,9.0,17.0,75,0.00,,,0.49,,2013-03-13 05:02:00,
2013-03-13 01:12:00,31.0,24.0,29.93,WSW,249,9.0,17.0,75,0.00,,,0.49,,2013-03-13 05:12:00,
2013-03-13 01:22:00,31.0,25.0,29.92,WSW,245,6.0,13.0,78,0.00,,,0.49,,2013-03-13 05:22:00,
2013-03-13 01:32:00,30.0,25.0,29.91,WSW,252,7.0,13.0,81,0.00,,,0.46,,2013-03-13 05:32:00,
2013-03-13 01:42:00,30.0,25.0,29.91,WSW,252,7.0,13.0,81,0.00,,,0.46,,2013-03-13 05:42:00,
2013-03-13 01:52:00,30.0,25.0,29.91,North,0,0.0,5.0,83,0.00,,,0.43,,2013-03-13 05:52:00,
2013-03-13 02:02:00,29.0,25.0,29.91,North,0,0.0,3.0,84,0.00,,,0.42,,2013-03-13 06:02:00,
2013-03-13 02:12:00,29.0,25.0,29.91,North,0,0.0,3.0,84,0.00,,,0.42,,2013-03-13 06:12:00,
2013-03-13 02:23:00,29.0,25.0,29.91,SW,233,1.0,5.0,85,0.00,,,0.32,,2013-03-13 06:23:00,
2013-03-13 02:32:00,29.0,25.0,29.91,North,0,0.0,3.0,86,0.00,,,0.26,,2013-03-13 06:32:00,
2013-03-13 02:42:00,29.0,25.0,29.91,North,0,0.0,3.0,86,0.00,,,0.26,,2013-03-13 06:42:00,
2013-03-13 02:53:00,29.0,25.0,29.91,North,0,0.0,3.0,85,0.00,,,0.32,,2013-03-13 06:53:00,
2013-03-13 03:02:00,29.0,25.0,29.90,North,0,0.0,2.0,86,0.00,,,0.23,,2013-03-13 07:02:00,
2013-03-13 03:12:00,29.0,25.0,29.90,North,0,0.0,2.0,86,0.00,,,0.23,,2013-03-13 07:12:00,
2013-03-13 03:22:00,28.0,24.0,29.90,North,0,0.0,2.0,86,0.00,,,0.22,,2013-03-13 07:22:00,
2013-03-13 03:33:00,28.0,24.0,29.89,North,0,0.0,2.0,86,0.00,,,0.19,,2013-03-13 07:33:00,
2013-03-13 03:42:00,28.0,24.0,29.89,North,0,0.0,2.0,86,0.00,,,0.19,,2013-03-13 07:42:00,
2013-03-13 03:52:00,28.0,24.0,29.89,North,0,0.0,0.0,86,0.00,,,0.17,,2013-03-13 07:52:00,
2013-03-13 04:03:00,28.0,24.0,29.88,North,0,0.0,1.0,86,0.00,,,0.16,,2013-03-13 08:03:00,
2013-03-13 04:12:00,28.0,24.0,29.88,North,0,0.0,1.0,86,0.00,,,0.16,,2013-03-13 08:12:00,
2013-03-13 04:22:00,28.0,24.0,29.88,SW,220,2.0,5.0,86,0.00,,,0.15,,2013-03-13 08:22:00,
2013-03-13 04:32:00,28.0,24.0,29.88,WSW,241,3.0,7.0,86,0.00,,,0.15,,2013-03-13 08:32:00,
2013-03-13 04:43:00,28.0,24.0,29.88,WSW,241,3.0,7.0,86,0.00,,,0.15,,2013-03-13 08:43:00,
2013-03-13 04:54:00,28.0,26.0,29.88,WSW,241,3.0,7.0,91,0.00,,,0.11,,2013-03-13 08:54:00,
2013-03-13 05:02:00,28.0,26.0,29.88,WSW,237,2.0,6.0,93,0.00,,,0.11,,2013-03-13 09:02:00,
2013-03-13 05:12:00,28.0,26.0,29.88,WSW,237,2.0,6.0,93,0.00,,,0.11,,2013-03-13 09:12:00,
2013-03-13 05:22:00,28.0,27.0,29.87,North,0,0.0,8.0,94,0.00,,,0.11,,2013-03-13 09:22:00,
2013-03-13 05:32:00,28.0,27.0,29.87,SW,226,1.0,4.0,94,0.00,,,0.08,,2013-03-13 09:32:00,
2013-03-13 05:42:00,28.0,27.0,29.87,SW,226,1.0,4.0,94,0.00,,,0.08,,2013-03-13 09:42:00,
2013-03-13 05:52:00,28.0,27.0,29.87,SW,228,1.0,4.0,95,0.00,,,0.08,,2013-03-13 09:52:00,
2013-03-13 06:02:00,28.0,27.0,29.87,SW,229,1.0,5.0,95,0.00,,,0.07,,2013-03-13 10:02:00,
2013-03-13 06:12:00,28.0,27.0,29.87,SW,229,1.0,5.0,95,0.00,,,0.07,,2013-03-13 10:12:00,
2013-03-13 06:22:00,28.0,27.0,29.87,SW,221,1.0,5.0,95,0.00,,,0.07,,2013-03-13 10:22:00,
2013-03-13 06:32:00,28.0,27.0,29.88,SW,229,3.0,7.0,94,0.00,,,0.04,,2013-03-13 10:32:00,
2013-03-13 06:42:00,28.0,27.0,29.88,SW,229,3.0,7.0,94,0.00,,,0.04,,2013-03-13 10:42:00,
2013-03-13 06:52:00,28.0,27.0,29.85,SW,229,2.0,5.0,94,0.00,,,0.03,,2013-03-13 10:52:00,
2013-03-13 07:02:00,28.0,26.0,29.85,WSW,242,3.0,7.0,93,0.00,,,0.02,,2013-03-13 11:02:00,
2013-03-13 07:12:00,28.0,26.0,29.85,WSW,242,3.0,7.0,93,0.00,,,0.02,,2013-03-13 11:12:00,
2013-03-13 07:22:00,28.0,26.0,29.85,SSW,210,3.0,6.0,93,0.00,,,0.02,,2013-03-13 11:22:00,
2013-03-13 07:32:00,29.0,27.0,29.85,SW,216,2.0,8.0,91,0.00,,,0.01,,2013-03-13 11:32:00,
2013-03-13 07:42:00,29.0,27.0,29.85,SW,216,2.0,8.0,91,0.00,,,0.01,,2013-03-13 11:42:00,
2013-03-13 07:52:00,29.0,26.0,29.84,WSW,237,2.0,7.0,90,0.00,,,0.01,,2013-03-13 11:52:00,
2013-03-13 08:02:00,29.0,26.0,29.85,SW,215,2.0,8.0,90,0.00,,,0.01,,2013-03-13 12:02:00,
2013-03-13 08:12:00,29.0,26.0,29.85,SW,215,2.0,8.0,90,0.00,,,0.01,,2013-03-13 12:12:00,
2013-03-13 08:22:00,29.0,27.0,29.85,WSW,237,5.0,8.0,91,0.00,,,0.01,,2013-03-13 12:22:00,
2013-03-13 08:32:00,28.0,26.0,29.85,SW,225,5.0,11.0,92,0.00,,,0.01,,2013-03-13 12:32:00,
2013-03-13 08:42:00,28.0,26.0,29.85,SW,225,5.0,11.0,92,0.00,,,0.01,,2013-03-13 12:42:00,
2013-03-13 08:53:00,29.0,27.0,29.85,SW,226,5.0,14.0,92,0.00,,,0.01,,2013-03-13 12:53:00,
2013-03-13 09:02:00,28.0,27.0,29.85,SW,236,6.0,20.0,95,0.00,,,0.01,,2013-03-13 13:02:00,
2013-03-13 09:12:00,28.0,27.0,29.85,SW,236,6.0,20.0,95,0.00,,,0.01,,2013-03-13 13:12:00,
2013-03-13 09:22:00,28.0,27.0,29.85,WSW,240,9.0,16.0,94,0.00,,,0.01,,2013-03-13 13:22:00,
2013-03-13 09:33:00,29.0,27.0,29.85,SW,233,9.0,18.0,93,0.00,,,0.01,,2013-03-13 13:33:00,
2013-03-13 09:43:00,29.0,27.0,29.85,SW,233,9.0,18.0,93,0.00,,,0.01,,2013-03-13 13:43:00,
2013-03-13 09:53:00,29.0,26.0,29.86,WSW,241,9.0,17.0,90,0.00,,,0.01,,2013-03-13 13:53:00,
2013-03-13 10:02:00,28.0,24.0,29.86,WSW,245,13.0,24.0,86,0.00,,,0.01,,2013-03-13 14:02:00,
2013-03-13 10:12:00,28.0,24.0,29.86,WSW,245,13.0,24.0,86,0.00,,,0.01,,2013-03-13 14:12:00,
2013-03-13 10:22:00,28.0,24.0,29.86,WSW,245,13.0,24.0,86,0.00,,,0.01,,2013-03-13 14:22:00,
2013-03-13 10:33:00,30.0,23.0,29.87,WSW,239,9.0,21.0,76,0.00,,,0.00,,2013-03-13 14:33:00,
2013-03-13 10:42:00,30.0,23.0,29.87,WSW,239,9.0,21.0,76,0.00,,,0.00,,2013-03-13 14:42:00,
2013-03-13 10:53:00,30.0,23.0,29.86,WSW,246,9.0,17.0,74,0.00,,,0.00,,2013-03-13 14:53:00,
2013-03-13 11:03:00,31.0,22.0,29.86,WSW,240,12.0,18.0,68,0.00,,,0.00,,2013-03-13 15:03:00,
2013-03-13 11:12:00,31.0,22.0,29.86,WSW,240,12.0,18.0,68,0.00,,,0.00,,2013-03-13 15:12:00,
2013-03-13 11:22:00,31.0,22.0,29.86,WSW,240,12.0,18.0,68,0.00,,,0.00,,2013-03-13 15:22:00,
2013-03-13 11:32:00,30.0,23.0,29.86,WSW,243,8.0,18.0,74,0.00,,,0.00,,2013-03-13 15:32:00,
2013-03-13 11:43:00,30.0,23.0,29.86,WSW,243,8.0,18.0,74,0.00,,,0.00,,2013-03-13 15:43:00,
2013-03-13 11:53:00,30.0,23.0,29.87,West,264,5.0,15.0,76,0.00,,,0.00,,2013-03-13 15:53:00,
2013-03-13 12:03:00,30.0,24.0,29.87,West,263,7.0,16.0,78,0.00,,,0.00,,2013-03-13 16:03:00,
2013-03-13 12:12:00,30.0,24.0,29.87,West,263,7.0,16.0,78,0.00,,,0.00,,2013-03-13 16:12:00,
2013-03-13 12:22:00,30.0,24.0,29.87,West,263,7.0,16.0,78,0.00,,,0.00,,2013-03-13 16:22:00,
2013-03-13 12:32:00,31.0,24.0,29.86,WSW,240,8.0,16.0,75,0.00,,,0.00,,2013-03-13 16:32:00,
2013-03-13 12:42:00,31.0,24.0,29.86,WSW,240,8.0,16.0,75,0.00,,,0.00,,2013-03-13 16:42:00,
2013-03-13 12:52:00,31.0,24.0,29.86,WSW,240,8.0,16.0,75,0.00,,,0.00,,2013-03-13 16:52:00,
2013-03-13 13:03:00,32.0,23.0,29.86,West,266,11.0,19.0,68,0.00,,,0.00,,2013-03-13 17:03:00,
2013-03-13 13:12:00,32.0,23.0,29.86,West,266,11.0,19.0,68,0.00,,,0.00,,2013-03-13 17:12:00,
2013-03-13 13:23:00,30.0,22.0,29.87,WSW,256,9.0,21.0,73,0.00,,,0.00,,2013-03-13 17:23:00,
2013-03-13 13:33:00,31.0,23.0,29.86,WSW,256,7.0,15.0,73,0.00,,,0.00,,2013-03-13 17:33:00,
2013-03-13 13:42:00,31.0,23.0,29.86,WSW,256,7.0,15.0,73,0.00,,,0.00,,2013-03-13 17:42:00,
2013-03-13 13:53:00,30.0,25.0,29.87,WSW,244,16.0,24.0,81,0.00,,,0.00,,2013-03-13 17:53:00,
2013-03-13 14:02:00,27.0,25.0,29.88,WSW,247,13.0,22.0,92,0.00,,,0.00,,2013-03-13 18:02:00,
2013-03-13 14:12:00,27.0,25.0,29.88,WSW,247,13.0,22.0,92,0.00,,,0.00,,2013-03-13 18:12:00,
2013-03-13 14:22:00,28.0,26.0,29.87,WSW,243,10.0,24.0,92,0.00,,,0.00,,2013-03-13 18:22:00,
2013-03-13 14:33:00,27.0,25.0,29.88,WSW,254,14.0,27.0,93,0.00,,,0.00,,2013-03-13 18:33:00,
2013-03-13 14:42:00,27.0,25.0,29.88,WSW,254,14.0,27.0,93,0.00,,,0.00,,2013-03-13 18:42:00,
2013-03-13 14:52:00,28.0,26.0,29.88,West,267,6.0,23.0,91,0.00,,,0.00,,2013-03-13 18:52:00,
2013-03-13 15:02:00,28.0,25.0,29.87,WSW,255,10.0,22.0,88,0.00,,,0.00,,2013-03-13 19:02:00,
2013-03-13 15:12:00,28.0,25.0,29.87,WSW,255,10.0,22.0,88,0.00,,,0.00,,2013-03-13 19:12:00,
2013-03-13 15:22:00,29.0,26.0,29.87,WSW,257,9.0,20.0,88,0.00,,,0.00,,2013-03-13 19:22:00,
2013-03-13 15:32:00,29.0,26.0,29.87,WSW,251,9.0,18.0,88,0.00,,,0.00,,2013-03-13 19:32:00,
2013-03-13 15:43:00,29.0,26.0,29.87,WSW,251,9.0,18.0,88,0.00,,,0.00,,2013-03-13 19:43:00,
2013-03-13 15:53:00,29.0,25.0,29.87,West,262,12.0,17.0,84,0.00,,,0.00,,2013-03-13 19:53:00,
2013-03-13 16:02:00,28.0,26.0,29.87,WSW,240,10.0,22.0,92,0.00,,,0.00,,2013-03-13 20:02:00,
2013-03-13 16:12:00,28.0,26.0,29.87,WSW,240,10.0,22.0,92,0.00,,,0.00,,2013-03-13 20:12:00,
2013-03-13 16:22:00,28.0,26.0,29.87,WSW,257,7.0,15.0,93,0.00,,,0.00,,2013-03-13 20:22:00,
2013-03-13 16:32:00,28.0,25.0,29.88,WSW,246,11.0,27.0,88,0.00,,,0.00,,2013-03-13 20:32:00,
2013-03-13 16:42:00,28.0,25.0,29.88,WSW,246,11.0,27.0,88,0.00,,,0.00,,2013-03-13 20:42:00,
2013-03-13 16:53:00,-999.0,-99.9,-100.00,WSW,243,9.0,19.0,-999,-99.99,,,-99.99,,2013-03-13 20:53:00,
2013-03-13 17:02:00,27.0,24.0,29.89,WSW,255,11.0,21.0,88,0.00,,,0.00,,2013-03-13 21:02:00,
2013-03-13 17:12:00,27.0,24.0,29.89,WSW,255,11.0,21.0,88,0.00,,,0.00,,2013-03-13 21:12:00,
2013-03-13 17:22:00,27.0,24.0,29.90,SW,236,9.0,21.0,88,0.00,,,0.00,,2013-03-13 21:22:00,
2013-03-13 17:33:00,27.0,24.0,29.90,SW,236,9.0,21.0,88,0.00,,,0.00,,2013-03-13 21:33:00,
2013-03-13 17:42:00,27.0,24.0,29.90,SW,236,9.0,21.0,88,0.00,,,0.00,,2013-03-13 21:42:00,
2013-03-13 17:52:00,27.0,21.0,29.91,West,275,11.0,24.0,79,0.00,,,0.00,,2013-03-13 21:52:00,
2013-03-13 18:02:00,28.0,18.0,29.91,WSW,243,16.0,26.0,66,0.00,,,0.00,,2013-03-13 22:02:00,
2013-03-13 18:12:00,28.0,18.0,29.91,WSW,243,16.0,26.0,66,0.00,,,0.00,,2013-03-13 22:12:00,
2013-03-13 18:22:00,28.0,17.0,29.92,West,262,12.0,30.0,63,0.00,,,0.00,,2013-03-13 22:22:00,
2013-03-13 18:32:00,28.0,17.0,29.92,WSW,251,16.0,30.0,62,0.00,,,0.00,,2013-03-13 22:32:00,
2013-03-13 18:42:00,28.0,17.0,29.92,WSW,251,16.0,30.0,62,0.00,,,0.00,,2013-03-13 22:42:00,
2013-03-13 18:52:00,28.0,26.0,29.85,WSW,242,3.0,7.0,93,0.00,,,0.02,,2013-03-13 22:52:00,
2013-03-13 19:02:00,25.0,21.0,29.93,West,268,8.0,20.0,85,0.00,,,0.00,,2013-03-13 23:02:00,
2013-03-13 19:12:00,25.0,21.0,29.93,West,268,8.0,20.0,85,0.00,,,0.00,,2013-03-13 23:12:00,
2013-03-13 19:22:00,24.0,21.0,29.95,WSW,243,13.0,25.0,89,0.00,,,0.00,,2013-03-13 23:22:00,
2013-03-13 19:32:00,24.0,21.0,29.94,WSW,247,10.0,19.0,88,0.00,,,0.00,,2013-03-13 23:32:00,
2013-03-13 19:43:00,24.0,21.0,29.94,WSW,247,10.0,19.0,88,0.00,,,0.00,,2013-03-13 23:43:00,
2013-03-13 19:52:00,24.0,21.0,29.94,WSW,247,10.0,19.0,88,0.00,,,0.00,,2013-03-13 23:52:00,
2013-03-13 20:02:00,23.0,21.0,29.96,West,276,14.0,23.0,91,0.00,,,0.00,,2013-03-14 00:02:00,
2013-03-13 20:13:00,23.0,21.0,29.96,West,276,14.0,23.0,91,0.00,,,0.00,,2013-03-14 00:13:00,
2013-03-13 20:22:00,22.0,20.0,29.96,West,267,12.0,23.0,92,0.00,,,0.00,,2013-03-14 00:22:00,
2013-03-13 20:32:00,22.0,20.0,29.97,WSW,255,8.0,26.0,92,0.00,,,0.00,,2013-03-14 00:32:00,
2013-03-13 20:42:00,22.0,20.0,29.97,WSW,255,8.0,26.0,92,0.00,,,0.00,,2013-03-14 00:42:00,
2013-03-13 20:52:00,22.0,20.0,29.98,West,266,9.0,22.0,91,0.00,,,0.00,,2013-03-14 00:52:00,
2013-03-13 21:02:00,22.0,20.0,29.98,WSW,241,8.0,17.0,91,0.00,,,0.00,,2013-03-14 01:02:00,
2013-03-13 21:12:00,22.0,20.0,29.98,WSW,241,8.0,17.0,91,0.00,,,0.00,,2013-03-14 01:12:00,
2013-03-13 21:22:00,22.0,20.0,29.98,WSW,257,7.0,21.0,90,0.00,,,0.00,,2013-03-14 01:22:00,
2013-03-13 21:32:00,22.0,19.0,29.98,WSW,255,10.0,22.0,88,0.00,,,0.00,,2013-03-14 01:32:00,
2013-03-13 21:42:00,22.0,19.0,29.98,WSW,255,10.0,22.0,88,0.00,,,0.00,,2013-03-14 01:42:00,
2013-03-13 21:53:00,22.0,19.0,29.98,West,264,9.0,23.0,87,0.00,,,0.00,,2013-03-14 01:53:00,
2013-03-13 22:02:00,22.0,18.0,29.98,WSW,256,9.0,23.0,86,0.00,,,0.00,,2013-03-14 02:02:00,
2013-03-13 22:12:00,22.0,18.0,29.98,WSW,256,9.0,23.0,86,0.00,,,0.00,,2013-03-14 02:12:00,
2013-03-13 22:22:00,23.0,19.0,29.98,WSW,252,9.0,24.0,83,0.00,,,0.00,,2013-03-14 02:22:00,
2013-03-13 22:32:00,23.0,18.0,29.98,WSW,245,12.0,23.0,82,0.00,,,0.00,,2013-03-14 02:32:00,
2013-03-13 22:42:00,23.0,18.0,29.98,WSW,245,12.0,23.0,82,0.00,,,0.00,,2013-03-14 02:42:00,
2013-03-13 22:52:00,23.0,18.0,29.98,WSW,245,12.0,23.0,82,0.00,,,0.00,,2013-03-14 02:52:00,
2013-03-13 23:02:00,23.0,18.0,30.00,West,270,9.0,26.0,80,0.00,,,0.00,,2013-03-14 03:02:00,
2013-03-13 23:12:00,23.0,18.0,30.00,West,270,9.0,26.0,80,0.00,,,0.00,,2013-03-14 03:12:00,
2013-03-13 23:23:00,23.0,18.0,30.00,West,265,14.0,30.0,80,0.00,,,0.00,,2013-03-14 03:23:00,
2013-03-13 23:32:00,23.0,17.0,29.99,West,265,13.0,30.0,77,0.00,,,0.00,,2013-03-14 03:32:00,
2013-03-13 23:42:00,23.0,17.0,29.99,West,265,13.0,30.0,77,0.00,,,0.00,,2013-03-14 03:42:00,
2013-03-13 23:53:00,23.0,17.0,29.99,West,265,13.0,30.0,77,0.00,,,0.00,,2013-03-14 03:53:00,